Terminal Aerodrome Forecast
Issued by NWS

Home | Current Version | Previous Version | Text Only | Print | Product List | Glossary On
Versions: 1 2 3 4 5 6 7 8 9 10 11 12 13 14 15 16 17 18 19 20
593
FTUS44 KCRP 200927 AAB
TAFLRD
TAF AMD
KLRD 200927Z 2009/2106 14003KT 2SM BR OVC004
      TEMPO 2010/2014 1/2SM FG VV002
     FM201600 17004KT P6SM BKN009 OVC015
     FM202000 16012KT P6SM SCT035
     FM210300 17004KT P6SM SCT009 BKN020=

USA.gov is the U.S. government's official web portal to all federal, state and local government web resources and services.